createdAt,value
2022-08-18T00:03:55.569Z,19.77
2022-08-18T00:09:03.830Z,17.83
2022-08-18T00:14:06.042Z,21.65
2022-08-18T00:19:09.477Z,18.83
2022-08-18T00:24:10.942Z,21.67
2022-08-18T00:29:12.297Z,15.20
2022-08-18T00:34:13.953Z,17.65
2022-08-18T00:39:15.645Z,16.90
2022-08-18T00:44:17.290Z,13.35
2022-08-18T00:49:18.728Z,21.40
2022-08-18T00:54:28.297Z,19.00
2022-08-18T00:59:39.459Z,23.60
2022-08-18T01:04:46.411Z,27.60
2022-08-18T01:09:50.840Z,25.48
2022-08-18T01:14:54.194Z,24.48
2022-08-18T01:20:15.443Z,28.80
2022-08-18T01:25:39.334Z,28.40
2022-08-18T01:30:49.645Z,22.63
2022-08-18T01:35:50.964Z,23.25
2022-08-18T01:41:23.004Z,20.08
2022-08-18T01:46:20.381Z,25.73
2022-08-18T01:51:36.286Z,50.40
2022-08-18T01:56:42.573Z,69.50
2022-08-18T02:01:49.553Z,84.50
2022-08-18T02:06:55.607Z,86.60
2022-08-18T02:11:57.761Z,92.28
2022-08-18T02:17:02.544Z,71.95
2022-08-18T02:22:05.670Z,62.85
2022-08-18T02:27:08.604Z,50.65
2022-08-18T02:32:09.975Z,38.50
2022-08-18T02:37:15.061Z,32.90
2022-08-18T02:42:17.890Z,30.23
2022-08-18T02:47:20.388Z,29.67
2022-08-18T02:52:22.067Z,24.08
2022-08-18T02:57:23.414Z,35.30
2022-08-18T03:02:24.770Z,27.90
2022-08-18T03:07:26.216Z,24.45
2022-08-18T03:12:27.577Z,28.95
2022-08-18T03:17:28.874Z,33.00
2022-08-18T03:22:31.043Z,34.95
2022-08-18T03:27:33.633Z,29.83
2022-08-18T03:32:34.837Z,27.08
2022-08-18T03:37:36.366Z,21.33
2022-08-18T03:42:37.684Z,22.35
2022-08-18T03:47:39.840Z,16.15
2022-08-18T03:52:41.608Z,21.75
2022-08-18T03:57:45.131Z,22.90
2022-08-18T04:02:46.361Z,25.42
2022-08-18T04:07:47.874Z,28.33
2022-08-18T04:12:49.308Z,22.45
2022-08-18T04:18:03.039Z,29.17
2022-08-18T04:23:05.369Z,40.10
2022-08-18T04:28:06.817Z,30.65
2022-08-18T04:33:08.085Z,25.05
2022-08-18T04:38:09.835Z,21.55
2022-08-18T04:43:14.771Z,21.25
2022-08-18T04:48:16.984Z,24.50
2022-08-18T04:53:37.925Z,29.15
2022-08-18T04:58:39.442Z,22.08
2022-08-18T05:03:43.030Z,20.23
2022-08-18T05:08:54.265Z,21.05
2022-08-18T05:13:59.746Z,18.88
2022-08-18T05:19:08.894Z,27.95
2022-08-18T05:24:10.904Z,26.75
2022-08-18T05:29:17.867Z,31.02
2022-08-18T05:34:21.711Z,31.15
2022-08-18T05:39:55.134Z,31.80
2022-08-18T05:44:57.751Z,30.13
2022-08-18T05:50:11.871Z,33.83
2022-08-18T05:55:59.427Z,29.27
2022-08-18T06:01:12.492Z,24.42
2022-08-18T06:06:19.272Z,26.77
2022-08-18T06:11:22.391Z,21.58
2022-08-18T06:16:38.105Z,33.20
2022-08-18T06:21:41.084Z,24.13
2022-08-18T06:27:00.676Z,49.60
2022-08-18T06:32:22.198Z,49.08
2022-08-18T06:38:05.540Z,29.30
2022-08-18T06:43:12.573Z,38.13
2022-08-18T06:48:22.689Z,46.97
2022-08-18T06:53:55.749Z,63.88
2022-08-18T06:59:19.148Z,41.85
2022-08-18T07:04:58.960Z,27.58
2022-08-18T07:10:01.694Z,27.88
2022-08-18T07:15:05.317Z,36.88
2022-08-18T07:20:23.734Z,33.92
2022-08-18T07:25:29.594Z,11.90
2022-08-18T07:30:35.938Z,20.38
2022-08-18T07:35:48.590Z,26.90
2022-08-18T07:41:03.159Z,33.05
2022-08-18T07:46:21.076Z,22.55
2022-08-18T07:51:42.932Z,26.73
2022-08-18T07:57:03.244Z,21.23
2022-08-18T08:02:23.152Z,30.05
2022-08-18T08:07:30.460Z,32.67
2022-08-18T08:13:11.342Z,37.78
2022-08-18T08:18:20.369Z,30.27
2022-08-18T08:29:22.657Z,43.72
2022-08-18T08:34:30.597Z,37.88
2022-08-18T08:39:36.358Z,16.75
2022-08-18T08:44:58.862Z,30.33
2022-08-18T08:50:07.030Z,20.83
2022-08-18T08:55:24.908Z,19.13
2022-08-18T09:00:27.811Z,22.77
2022-08-18T09:05:35.361Z,22.73
2022-08-18T09:10:51.621Z,18.15
2022-08-18T09:22:59.602Z,27.33
2022-08-18T09:28:19.223Z,29.65
2022-08-18T09:39:11.653Z,23.45
2022-08-18T09:44:34.217Z,18.73
2022-08-18T09:50:37.346Z,25.15
2022-08-18T09:55:26.795Z,24.42
2022-08-18T10:00:30.893Z,13.70
2022-08-18T10:05:35.150Z,20.52
2022-08-18T10:11:00.651Z,18.42
2022-08-18T10:16:51.056Z,15.60
2022-08-18T10:22:01.101Z,32.05
2022-08-18T10:27:10.301Z,27.23
2022-08-18T10:32:14.637Z,28.10
2022-08-18T10:37:28.414Z,27.38
2022-08-18T10:42:45.006Z,24.75
2022-08-18T10:48:24.415Z,28.42
2022-08-18T10:53:39.590Z,31.02
2022-08-18T10:58:59.329Z,23.15
2022-08-18T11:04:14.500Z,14.98
2022-08-18T11:09:32.843Z,17.35
2022-08-18T11:15:22.047Z,19.30
2022-08-18T11:20:30.912Z,15.57
2022-08-18T11:25:35.659Z,26.75
2022-08-18T11:30:43.384Z,30.50
2022-08-18T11:36:01.369Z,12.00
2022-08-18T11:41:48.011Z,17.58
2022-08-18T11:46:58.463Z,23.73
2022-08-18T11:52:29.280Z,17.02
2022-08-18T12:03:21.926Z,17.63
2022-08-18T12:08:56.384Z,18.55
2022-08-18T12:14:31.211Z,23.20
2022-08-18T12:19:34.443Z,22.90
2022-08-18T12:24:36.961Z,27.48
2022-08-18T12:29:43.501Z,25.10
2022-08-18T12:34:46.065Z,33.50
2022-08-18T12:39:48.218Z,21.92
2022-08-18T12:44:51.178Z,24.45
2022-08-18T12:49:53.165Z,17.02
2022-08-18T12:54:55.281Z,31.83
2022-08-18T12:59:57.333Z,20.70
2022-08-18T13:04:59.404Z,18.63
2022-08-18T13:10:01.593Z,20.92
2022-08-18T13:15:05.382Z,19.85
2022-08-18T13:20:10.980Z,15.85
2022-08-18T13:25:32.041Z,36.30
2022-08-18T13:30:35.515Z,23.98
2022-08-18T13:35:44.243Z,27.10
2022-08-18T13:40:47.869Z,29.67
2022-08-18T13:45:53.465Z,23.13
2022-08-18T13:51:00.987Z,30.10
2022-08-18T13:56:03.097Z,19.05
2022-08-18T14:11:36.960Z,47.47
2022-08-18T14:16:43.075Z,13.40
2022-08-18T14:22:11.456Z,49.65
2022-08-18T14:27:13.287Z,59.30
2022-08-18T14:32:21.972Z,21.30
2022-08-18T14:37:33.910Z,23.33
2022-08-18T14:42:41.685Z,27.42
2022-08-18T14:47:56.278Z,13.45
2022-08-18T14:52:59.152Z,37.22
2022-08-18T14:58:01.234Z,29.52
2022-08-18T15:03:05.613Z,15.43
2022-08-18T15:08:06.969Z,15.35
2022-08-18T15:13:09.396Z,16.20
2022-08-18T15:18:11.327Z,15.00
2022-08-18T15:23:33.165Z,19.55
2022-08-18T15:28:34.857Z,19.92
2022-08-18T15:33:36.961Z,13.57
2022-08-18T15:38:39.828Z,16.10
2022-08-18T15:43:46.316Z,17.33
2022-08-18T15:48:49.433Z,13.20
2022-08-18T15:53:51.914Z,15.73
2022-08-18T15:59:00.482Z,17.70
2022-08-18T16:04:04.311Z,18.95
2022-08-18T16:09:05.540Z,38.72
2022-08-18T16:14:08.492Z,44.45
2022-08-18T16:19:09.750Z,22.88
2022-08-18T16:24:12.249Z,17.70
2022-08-18T16:29:15.011Z,26.50
2022-08-18T16:34:16.532Z,18.48
2022-08-18T16:39:17.816Z,20.92
2022-08-18T16:44:19.281Z,23.00
2022-08-18T16:49:20.905Z,18.20
2022-08-18T16:54:22.371Z,38.55
2022-08-18T16:59:42.337Z,22.52
2022-08-18T17:04:43.661Z,16.40
2022-08-18T17:09:45.829Z,29.20
2022-08-18T17:14:51.965Z,18.98
2022-08-18T17:19:54.072Z,17.08
2022-08-18T17:25:01.905Z,22.23
2022-08-18T17:30:07.232Z,16.45
2022-08-18T17:35:26.950Z,22.80
2022-08-18T17:40:38.697Z,18.83
2022-08-18T17:45:41.359Z,32.05
2022-08-18T17:51:11.069Z,18.52
2022-08-18T17:56:36.346Z,34.03
2022-08-18T18:01:38.433Z,46.45
2022-08-18T18:06:43.473Z,28.23
2022-08-18T18:11:47.704Z,33.72
2022-08-18T18:22:20.829Z,20.63
2022-08-18T18:27:40.066Z,42.08
2022-08-18T18:32:59.326Z,31.55
2022-08-18T18:38:05.759Z,39.60
2022-08-18T18:43:35.299Z,35.53
2022-08-18T18:48:52.309Z,25.98
2022-08-18T18:54:06.419Z,67.85
2022-08-18T18:59:38.534Z,54.17
2022-08-18T19:04:49.593Z,39.38
2022-08-18T19:10:09.465Z,47.72
2022-08-18T19:15:17.569Z,42.72
2022-08-18T19:20:22.766Z,38.38
2022-08-18T19:25:33.667Z,40.83
2022-08-18T19:30:39.972Z,33.17
2022-08-18T19:36:00.656Z,44.45
2022-08-18T19:41:13.756Z,24.17
2022-08-18T19:46:21.876Z,12.88
2022-08-18T19:51:40.127Z,8.73
2022-08-18T19:56:51.033Z,6.05
2022-08-18T20:01:58.941Z,4.57
2022-08-18T20:07:04.007Z,7.43
2022-08-18T20:12:27.655Z,6.03
2022-08-18T20:17:29.804Z,7.43
2022-08-18T20:22:42.330Z,7.50
2022-08-18T20:27:52.163Z,6.20
2022-08-18T20:33:25.697Z,6.18
2022-08-18T20:38:35.720Z,4.40
2022-08-18T20:43:38.943Z,7.18
2022-08-18T20:54:57.866Z,3.58
2022-08-18T21:00:15.457Z,5.00
2022-08-18T21:05:39.795Z,3.83
2022-08-18T21:10:58.188Z,3.58
2022-08-18T21:16:00.393Z,7.03
2022-08-18T21:21:06.243Z,7.93
2022-08-18T21:26:17.448Z,5.88
2022-08-18T21:31:44.046Z,7.05
2022-08-18T21:36:55.539Z,9.50
2022-08-18T21:41:58.705Z,10.27
2022-08-18T21:52:24.361Z,5.20
2022-08-18T21:57:28.776Z,6.55
2022-08-18T22:02:31.479Z,4.60
2022-08-18T22:07:35.620Z,6.13
2022-08-18T22:12:56.253Z,5.72
2022-08-18T22:18:07.044Z,5.90
2022-08-18T22:23:30.385Z,8.57
2022-08-18T22:28:32.625Z,4.13
2022-08-18T22:33:34.628Z,2.35
2022-08-18T22:38:37.133Z,6.75
2022-08-18T22:43:39.159Z,5.10
2022-08-18T22:48:41.190Z,26.55
2022-08-18T22:53:43.373Z,12.82
2022-08-18T22:58:46.789Z,14.25
2022-08-18T23:03:48.817Z,24.63
2022-08-18T23:08:55.397Z,19.42
2022-08-18T23:14:00.757Z,20.13
2022-08-18T23:19:03.120Z,10.98
2022-08-18T23:24:05.601Z,11.40
2022-08-18T23:29:11.683Z,9.18
2022-08-18T23:34:17.693Z,17.13
2022-08-18T23:39:20.001Z,15.15
2022-08-18T23:44:23.799Z,11.60
2022-08-18T23:49:30.798Z,17.65
2022-08-18T23:54:35.274Z,15.45
2022-08-18T23:59:37.249Z,18.35
